createdAt,value
2023-01-26T00:00:07.884Z,518.00
2023-01-26T00:01:07.591Z,519.00
2023-01-26T00:02:07.505Z,515.00
2023-01-26T00:03:07.376Z,514.00
2023-01-26T00:04:07.300Z,514.00
2023-01-26T00:05:07.070Z,513.00
2023-01-26T00:06:06.984Z,514.00
2023-01-26T00:07:06.844Z,515.00
2023-01-26T00:08:06.718Z,516.00
2023-01-26T00:09:06.604Z,514.00
2023-01-26T00:10:06.486Z,513.00
2023-01-26T00:11:06.346Z,510.00
2023-01-26T00:12:06.233Z,512.00
2023-01-26T00:13:06.096Z,511.00
2023-01-26T00:14:05.973Z,509.00
2023-01-26T00:15:05.854Z,507.00
2023-01-26T00:16:05.776Z,507.00
2023-01-26T00:17:05.578Z,511.00
2023-01-26T00:18:05.454Z,511.00
2023-01-26T00:19:05.318Z,511.00
2023-01-26T00:20:05.216Z,511.00
2023-01-26T00:21:05.073Z,513.00
2023-01-26T00:22:04.943Z,517.00
2023-01-26T00:23:04.824Z,518.00
2023-01-26T00:24:04.824Z,516.00
2023-01-26T01:04:59.630Z,503.00
2023-01-26T01:05:59.490Z,503.00
2023-01-26T01:06:59.390Z,504.00
2023-01-26T01:07:59.253Z,504.00
2023-01-26T01:08:59.079Z,504.00
2023-01-26T01:09:58.967Z,504.00
2023-01-26T01:10:58.815Z,504.00
2023-01-26T01:11:58.738Z,503.00
2023-01-26T01:12:58.616Z,504.00
2023-01-26T01:13:58.475Z,508.00
2023-01-26T01:14:58.354Z,506.00
2023-01-26T01:15:58.256Z,506.00
2023-01-26T01:16:58.104Z,505.00
2023-01-26T01:17:57.999Z,504.00
2023-01-26T01:18:57.856Z,503.00
2023-01-26T01:19:57.753Z,502.00
2023-01-26T01:20:57.611Z,504.00
2023-01-26T01:21:57.504Z,505.00
2023-01-26T01:22:57.393Z,505.00
2023-01-26T01:23:57.315Z,504.00
2023-01-26T01:24:57.154Z,502.00
2023-01-26T01:25:57.009Z,503.00
2023-01-26T01:26:56.916Z,502.00
2023-01-26T01:27:56.820Z,500.00
2023-01-26T01:28:56.723Z,497.00
2023-01-26T01:29:56.555Z,496.00
2023-01-26T01:30:56.417Z,497.00
2023-01-26T01:31:56.383Z,496.00
2023-01-26T01:32:56.167Z,497.00
2023-01-26T01:33:56.030Z,498.00
2023-01-26T01:34:55.936Z,497.00
2023-01-26T01:35:55.790Z,498.00
2023-01-26T01:36:55.649Z,498.00
2023-01-26T01:37:55.514Z,498.00
2023-01-26T01:38:55.399Z,497.00
2023-01-26T01:39:55.278Z,495.00
2023-01-26T02:12:50.889Z,486.00
2023-01-26T02:13:50.749Z,488.00
2023-01-26T02:14:50.645Z,484.00
2023-01-26T02:15:50.547Z,485.00
2023-01-26T02:16:50.396Z,481.00
2023-01-26T02:17:50.255Z,483.00
2023-01-26T02:18:50.163Z,485.00
2023-01-26T02:19:50.060Z,485.00
2023-01-26T02:20:49.933Z,488.00
2023-01-26T02:21:49.819Z,491.00
2023-01-26T02:22:49.657Z,488.00
2023-01-26T02:23:49.549Z,489.00
2023-01-26T02:24:49.397Z,488.00
2023-01-26T02:25:49.289Z,489.00
2023-01-26T02:26:49.139Z,489.00
2023-01-26T02:27:49.041Z,490.00
2023-01-26T02:28:48.915Z,488.00
2023-01-26T02:29:48.795Z,486.00
2023-01-26T02:30:48.716Z,485.00
2023-01-26T02:31:48.543Z,484.00
2023-01-26T03:24:41.440Z,484.00
2023-01-26T03:25:41.293Z,485.00
2023-01-26T03:26:41.175Z,487.00
2023-01-26T03:27:40.982Z,486.00
2023-01-26T03:28:40.865Z,485.00
2023-01-26T03:29:40.747Z,484.00
2023-01-26T03:30:40.586Z,483.00
2023-01-26T03:31:40.488Z,484.00
2023-01-26T03:32:40.240Z,480.00
2023-01-26T03:33:40.087Z,479.00
2023-01-26T03:34:39.915Z,480.00
2023-01-26T03:35:39.746Z,481.00
2023-01-26T03:36:39.622Z,482.00
2023-01-26T03:37:39.480Z,481.00
2023-01-26T03:38:39.356Z,478.00
2023-01-26T03:39:39.196Z,478.00
2023-01-26T03:40:39.036Z,480.00
2023-01-26T03:41:38.878Z,480.00
2023-01-26T03:42:38.750Z,481.00
2023-01-26T03:43:38.571Z,482.00
2023-01-26T04:15:33.765Z,485.00
2023-01-26T04:22:32.636Z,483.00
2023-01-26T04:23:32.460Z,481.00
2023-01-26T04:24:32.291Z,480.00
2023-01-26T04:25:32.140Z,477.00
2023-01-26T04:26:32.042Z,477.00
2023-01-26T04:27:31.875Z,478.00
2023-01-26T04:28:31.712Z,475.00
2023-01-26T04:29:31.553Z,476.00
2023-01-26T04:30:31.443Z,475.00
2023-01-26T04:31:31.276Z,473.00
2023-01-26T04:32:31.071Z,473.00
2023-01-26T04:33:30.966Z,474.00
2023-01-26T04:34:30.791Z,475.00
2023-01-26T04:35:30.619Z,472.00
2023-01-26T04:36:30.472Z,473.00
2023-01-26T04:37:30.310Z,475.00
2023-01-26T04:38:30.180Z,476.00
2023-01-26T04:39:30.065Z,477.00
2023-01-26T04:40:29.873Z,476.00
2023-01-26T04:41:29.701Z,478.00
2023-01-26T04:42:29.520Z,477.00
2023-01-26T04:43:29.362Z,477.00
2023-01-26T04:44:29.251Z,474.00
2023-01-26T04:45:29.125Z,473.00
2023-01-26T04:46:28.922Z,475.00
2023-01-26T04:47:29.452Z,477.00
2023-01-26T04:48:28.610Z,478.00
2023-01-26T04:50:28.277Z,477.00
2023-01-26T04:51:28.116Z,481.00
2023-01-26T04:52:27.998Z,481.00
2023-01-26T04:53:27.834Z,481.00
2023-01-26T04:54:27.678Z,481.00
2023-01-26T04:55:27.540Z,479.00
2023-01-26T04:56:27.467Z,481.00
2023-01-26T04:57:27.247Z,482.00
2023-01-26T04:58:27.091Z,481.00
2023-01-26T04:59:26.964Z,482.00
2023-01-26T05:00:26.844Z,481.00
2023-01-26T05:01:26.710Z,482.00
2023-01-26T05:02:26.501Z,483.00
2023-01-26T05:03:26.361Z,483.00
2023-01-26T05:04:26.219Z,482.00
2023-01-26T05:05:26.059Z,483.00
2023-01-26T05:06:25.927Z,482.00
2023-01-26T05:07:25.775Z,483.00
2023-01-26T05:08:25.628Z,483.00
2023-01-26T05:09:25.469Z,482.00
2023-01-26T05:10:25.317Z,480.00
2023-01-26T05:11:25.172Z,480.00
2023-01-26T05:12:25.024Z,481.00
2023-01-26T05:13:24.891Z,478.00
2023-01-26T05:14:24.795Z,478.00
2023-01-26T05:15:24.654Z,475.00
2023-01-26T05:16:24.508Z,475.00
2023-01-26T05:17:24.324Z,473.00
2023-01-26T05:18:24.205Z,471.00
2023-01-26T05:19:24.018Z,469.00
2023-01-26T05:20:23.859Z,470.00
2023-01-26T05:21:23.738Z,470.00
2023-01-26T05:22:23.620Z,469.00
2023-01-26T05:23:23.452Z,472.00
2023-01-26T05:24:23.318Z,471.00
2023-01-26T05:25:23.146Z,471.00
2023-01-26T05:26:23.039Z,474.00
2023-01-26T05:27:22.908Z,475.00
2023-01-26T05:28:22.749Z,476.00
2023-01-26T05:29:22.645Z,475.00
2023-01-26T05:30:22.492Z,474.00
2023-01-26T05:31:22.390Z,476.00
2023-01-26T05:32:22.200Z,474.00
2023-01-26T05:33:22.089Z,474.00
2023-01-26T05:34:21.911Z,478.00
2023-01-26T05:35:21.779Z,477.00
2023-01-26T05:36:21.655Z,475.00
2023-01-26T05:37:21.474Z,474.00
2023-01-26T05:38:21.361Z,473.00
2023-01-26T05:39:21.226Z,476.00
2023-01-26T05:40:21.087Z,478.00
2023-01-26T05:41:20.963Z,477.00
2023-01-26T05:42:20.833Z,479.00
2023-01-26T05:43:20.657Z,476.00
2023-01-26T05:44:20.537Z,475.00
2023-01-26T05:45:20.393Z,475.00
2023-01-26T05:46:20.257Z,476.00
2023-01-26T05:47:20.170Z,476.00
2023-01-26T05:48:19.978Z,474.00
2023-01-26T05:49:19.882Z,475.00
2023-01-26T05:50:19.722Z,475.00
2023-01-26T05:51:19.581Z,476.00
2023-01-26T05:52:19.468Z,478.00
2023-01-26T05:53:19.293Z,479.00
2023-01-26T05:54:19.161Z,476.00
2023-01-26T05:55:19.048Z,477.00
2023-01-26T05:56:18.893Z,478.00
2023-01-26T05:57:18.793Z,477.00
2023-01-26T05:58:18.687Z,477.00
2023-01-26T05:59:18.525Z,474.00
2023-01-26T06:01:25.320Z,475.00
2023-01-26T06:58:09.588Z,487.00
2023-01-26T06:59:09.124Z,483.00
2023-01-26T07:00:09.262Z,481.00
2023-01-26T07:01:08.873Z,484.00
2023-01-26T07:02:08.737Z,482.00
2023-01-26T07:03:08.586Z,484.00
2023-01-26T07:04:08.588Z,485.00
2023-01-26T07:42:03.375Z,490.00
2023-01-26T07:43:03.212Z,491.00
2023-01-26T07:44:03.069Z,488.00
2023-01-26T07:45:02.968Z,488.00
2023-01-26T07:46:02.830Z,491.00
2023-01-26T07:47:02.699Z,490.00
2023-01-26T07:48:02.582Z,488.00
2023-01-26T07:49:02.451Z,486.00
2023-01-26T07:50:02.308Z,485.00
2023-01-26T07:51:02.152Z,486.00
2023-01-26T07:52:04.527Z,487.00
2023-01-26T07:53:01.867Z,488.00
2023-01-26T07:54:01.681Z,485.00
2023-01-26T07:55:01.621Z,485.00
2023-01-26T07:56:01.315Z,488.00
2023-01-26T07:57:01.110Z,489.00
2023-01-26T07:58:00.986Z,489.00
2023-01-26T07:59:02.883Z,487.00
2023-01-26T08:00:00.644Z,489.00
2023-01-26T08:01:00.426Z,489.00
2023-01-26T08:02:00.275Z,489.00
2023-01-26T08:03:00.144Z,487.00
2023-01-26T08:03:59.877Z,489.00
2023-01-26T08:05:00.104Z,491.00
2023-01-26T08:05:59.536Z,493.00
2023-01-26T08:06:59.340Z,492.00
2023-01-26T08:07:59.193Z,491.00
2023-01-26T08:08:58.969Z,491.00
2023-01-26T08:09:58.791Z,494.00
2023-01-26T08:10:58.668Z,492.00
2023-01-26T08:11:58.473Z,490.00
2023-01-26T08:12:58.269Z,491.00
2023-01-26T08:13:58.113Z,491.00
2023-01-26T08:14:57.973Z,491.00
2023-01-26T08:15:57.751Z,490.00
2023-01-26T08:16:57.568Z,491.00
2023-01-26T08:17:57.397Z,489.00
2023-01-26T08:18:57.230Z,490.00
2023-01-26T08:19:57.064Z,490.00
2023-01-26T08:20:56.869Z,489.00
2023-01-26T08:21:56.704Z,490.00
2023-01-26T08:35:54.213Z,492.00
2023-01-26T08:36:54.027Z,496.00
2023-01-26T08:37:53.842Z,498.00
2023-01-26T08:38:53.688Z,502.00
2023-01-26T08:39:53.495Z,499.00
2023-01-26T08:40:53.333Z,499.00
2023-01-26T08:41:53.115Z,500.00
2023-01-26T08:42:52.924Z,499.00
2023-01-26T08:43:52.760Z,501.00
2023-01-26T08:44:52.596Z,504.00
2023-01-26T08:45:52.447Z,502.00
2023-01-26T08:46:52.233Z,505.00
2023-01-26T08:47:52.064Z,506.00
2023-01-26T08:48:51.890Z,505.00
2023-01-26T08:49:51.704Z,506.00
2023-01-26T08:50:51.528Z,506.00
2023-01-26T08:51:51.356Z,506.00
2023-01-26T08:52:51.265Z,506.00
2023-01-26T08:53:51.114Z,506.00
2023-01-26T08:54:50.997Z,508.00
2023-01-26T08:55:50.867Z,509.00
2023-01-26T08:56:50.734Z,511.00
2023-01-26T08:57:50.625Z,514.00
2023-01-26T08:58:50.495Z,513.00
2023-01-26T08:59:50.701Z,514.00
2023-01-26T09:00:50.332Z,514.00
2023-01-26T09:01:51.226Z,513.00
2023-01-26T09:02:50.090Z,512.00
2023-01-26T09:03:49.859Z,513.00
2023-01-26T09:04:49.719Z,514.00
2023-01-26T09:05:49.561Z,519.00
2023-01-26T09:06:49.424Z,521.00
2023-01-26T09:07:49.311Z,519.00
2023-01-26T09:08:49.214Z,517.00
2023-01-26T09:09:49.072Z,516.00
2023-01-26T09:10:48.992Z,517.00
2023-01-26T09:11:48.748Z,518.00
2023-01-26T09:12:48.641Z,516.00
2023-01-26T09:13:48.500Z,518.00
2023-01-26T09:14:48.361Z,517.00
2023-01-26T09:15:48.206Z,517.00
2023-01-26T09:16:48.146Z,517.00
2023-01-26T09:17:47.930Z,517.00
2023-01-26T09:18:47.827Z,517.00
2023-01-26T09:19:47.666Z,519.00
2023-01-26T09:20:47.556Z,520.00
2023-01-26T09:21:47.401Z,520.00
2023-01-26T09:22:47.269Z,523.00
2023-01-26T09:23:47.207Z,524.00
2023-01-26T09:24:47.384Z,525.00
2023-01-26T09:25:46.857Z,525.00
2023-01-26T09:26:46.726Z,524.00
2023-01-26T09:27:46.565Z,521.00
2023-01-26T09:28:46.441Z,522.00
2023-01-26T09:29:46.347Z,524.00
2023-01-26T09:30:46.254Z,523.00
2023-01-26T09:31:46.126Z,523.00
2023-01-26T09:32:45.907Z,522.00
2023-01-26T09:33:45.744Z,519.00
2023-01-26T09:34:46.161Z,519.00
2023-01-26T09:35:45.497Z,517.00
2023-01-26T09:36:45.369Z,517.00
2023-01-26T09:40:45.129Z,523.00
2023-01-26T09:41:44.688Z,518.00
2023-01-26T10:07:41.169Z,541.00
2023-01-26T10:08:41.044Z,541.00
2023-01-26T10:11:40.664Z,540.00
2023-01-26T10:12:40.487Z,541.00
2023-01-26T10:13:40.369Z,540.00
2023-01-26T10:14:40.231Z,540.00
2023-01-26T10:15:40.145Z,537.00
2023-01-26T10:16:39.930Z,536.00
2023-01-26T10:17:39.856Z,539.00
2023-01-26T10:18:39.665Z,543.00
2023-01-26T10:19:39.550Z,543.00
2023-01-26T10:20:39.434Z,547.00
2023-01-26T10:21:39.271Z,545.00
2023-01-26T10:22:39.106Z,544.00
2023-01-26T10:23:38.961Z,543.00
2023-01-26T10:24:38.872Z,540.00
2023-01-26T10:25:38.729Z,544.00
2023-01-26T10:26:38.590Z,545.00
2023-01-26T10:27:38.419Z,545.00
2023-01-26T10:28:38.330Z,546.00
2023-01-26T10:29:38.139Z,546.00
2023-01-26T10:30:38.130Z,547.00
2023-01-26T10:31:37.892Z,547.00
2023-01-26T10:32:37.735Z,544.00
2023-01-26T10:33:37.618Z,546.00
2023-01-26T10:34:37.467Z,546.00
2023-01-26T10:35:37.314Z,547.00
2023-01-26T10:36:37.228Z,547.00
2023-01-26T10:37:37.051Z,545.00
2023-01-26T10:38:36.903Z,547.00
2023-01-26T10:39:36.870Z,549.00
2023-01-26T10:40:36.667Z,549.00
2023-01-26T10:41:36.500Z,550.00
2023-01-26T10:42:36.402Z,548.00
2023-01-26T10:43:36.258Z,548.00
2023-01-26T10:44:36.112Z,546.00
2023-01-26T10:45:35.961Z,546.00
2023-01-26T10:46:36.175Z,547.00
2023-01-26T10:47:35.680Z,545.00
2023-01-26T10:48:35.494Z,546.00
2023-01-26T10:49:35.372Z,547.00
2023-01-26T10:50:35.250Z,547.00
2023-01-26T10:51:35.146Z,545.00
2023-01-26T10:52:34.930Z,544.00
2023-01-26T10:53:34.777Z,544.00
2023-01-26T10:54:34.631Z,546.00
2023-01-26T10:55:34.548Z,545.00
2023-01-26T10:56:34.371Z,546.00
2023-01-26T10:57:34.251Z,545.00
2023-01-26T10:58:34.232Z,549.00
2023-01-26T10:59:33.955Z,549.00
2023-01-26T11:00:33.848Z,552.00
2023-01-26T11:01:33.765Z,552.00
2023-01-26T11:02:33.641Z,550.00
2023-01-26T11:03:33.423Z,548.00
2023-01-26T11:04:33.270Z,546.00
2023-01-26T11:05:33.136Z,545.00
2023-01-26T11:06:33.012Z,549.00
2023-01-26T11:07:32.894Z,550.00
2023-01-26T11:08:32.728Z,549.00
2023-01-26T11:09:32.554Z,551.00
2023-01-26T11:10:32.429Z,554.00
2023-01-26T11:11:32.322Z,555.00
2023-01-26T11:12:32.175Z,551.00
2023-01-26T11:13:32.054Z,552.00
2023-01-26T11:14:31.920Z,554.00
2023-01-26T11:15:31.743Z,553.00
2023-01-26T11:16:31.712Z,552.00
2023-01-26T11:17:31.500Z,551.00
2023-01-26T11:18:31.360Z,552.00
2023-01-26T11:19:31.248Z,552.00
2023-01-26T11:20:31.128Z,551.00
2023-01-26T11:21:31.208Z,553.00
2023-01-26T11:22:30.862Z,553.00
2023-01-26T11:23:30.691Z,552.00
2023-01-26T11:24:30.549Z,551.00
2023-01-26T11:25:30.420Z,550.00
2023-01-26T11:26:30.699Z,551.00
2023-01-26T11:27:30.158Z,551.00
2023-01-26T11:28:30.063Z,553.00
2023-01-26T11:29:29.859Z,553.00
2023-01-26T11:30:29.859Z,549.00
2023-01-26T11:31:29.640Z,546.00
2023-01-26T11:32:29.489Z,546.00
2023-01-26T11:33:29.345Z,549.00
2023-01-26T11:34:29.205Z,549.00
2023-01-26T11:35:29.083Z,548.00
2023-01-26T11:36:28.977Z,548.00
2023-01-26T11:37:29.162Z,547.00
2023-01-26T11:38:28.664Z,546.00
2023-01-26T11:39:28.517Z,546.00
2023-01-26T11:40:28.406Z,549.00
2023-01-26T11:41:28.300Z,549.00
2023-01-26T11:42:28.184Z,549.00
2023-01-26T11:43:27.992Z,552.00
2023-01-26T11:44:27.852Z,550.00
2023-01-26T11:45:27.873Z,551.00
2023-01-26T11:46:27.561Z,552.00
2023-01-26T11:47:27.427Z,550.00
2023-01-26T11:48:27.303Z,552.00
2023-01-26T11:49:27.103Z,550.00
2023-01-26T11:50:26.989Z,549.00
2023-01-26T11:51:26.885Z,549.00
2023-01-26T11:52:26.741Z,550.00
2023-01-26T11:53:26.612Z,554.00
2023-01-26T11:54:26.481Z,554.00
2023-01-26T11:55:26.372Z,550.00
2023-01-26T11:56:26.191Z,548.00
2023-01-26T11:57:26.090Z,545.00
2023-01-26T11:58:25.929Z,546.00
2023-01-26T11:59:25.804Z,544.00
2023-01-26T12:00:30.590Z,547.00
2023-01-26T12:01:26.499Z,546.00
2023-01-26T12:02:27.605Z,546.00
2023-01-26T12:03:25.398Z,549.00
2023-01-26T12:04:25.212Z,549.00
2023-01-26T12:05:25.104Z,549.00
2023-01-26T12:06:24.929Z,552.00
2023-01-26T12:07:25.183Z,554.00
2023-01-26T12:08:24.706Z,555.00
2023-01-26T12:09:24.572Z,554.00
2023-01-26T12:10:24.436Z,554.00
2023-01-26T12:11:24.270Z,559.00
2023-01-26T12:12:24.145Z,561.00
2023-01-26T12:13:24.024Z,561.00
2023-01-26T12:14:23.885Z,562.00
2023-01-26T12:15:23.723Z,562.00
2023-01-26T12:16:23.691Z,562.00
2023-01-26T12:17:23.525Z,563.00
2023-01-26T12:18:23.314Z,563.00
2023-01-26T12:19:23.168Z,567.00
2023-01-26T12:20:23.043Z,566.00
2023-01-26T12:21:22.903Z,566.00
2023-01-26T12:22:22.824Z,567.00
2023-01-26T12:23:22.636Z,568.00
2023-01-26T12:24:48.433Z,564.00
2023-01-26T12:25:23.358Z,564.00
2023-01-26T12:26:22.125Z,562.00
2023-01-26T12:27:21.996Z,559.00
2023-01-26T12:28:21.808Z,558.00
2023-01-26T12:29:21.618Z,561.00
2023-01-26T12:30:21.436Z,561.00
2023-01-26T12:31:21.369Z,562.00
2023-01-26T12:32:21.173Z,565.00
2023-01-26T12:33:20.905Z,566.00
2023-01-26T12:34:20.695Z,568.00
2023-01-26T12:35:20.527Z,570.00
2023-01-26T12:36:20.352Z,569.00
2023-01-26T12:37:20.676Z,570.00
2023-01-26T12:38:20.058Z,569.00
2023-01-26T12:39:19.937Z,568.00
2023-01-26T12:40:19.764Z,564.00
2023-01-26T12:41:19.610Z,561.00
2023-01-26T12:42:19.514Z,559.00
2023-01-26T12:43:19.339Z,561.00
2023-01-26T12:44:19.187Z,562.00
2023-01-26T12:45:19.086Z,563.00
2023-01-26T12:46:18.992Z,566.00
2023-01-26T12:47:18.821Z,567.00
2023-01-26T12:48:18.644Z,566.00
2023-01-26T13:55:09.622Z,575.00
2023-01-26T13:56:09.503Z,577.00
2023-01-26T13:57:09.392Z,578.00
2023-01-26T13:58:09.227Z,578.00
2023-01-26T13:59:09.113Z,585.00
2023-01-26T14:00:09.080Z,590.00
2023-01-26T14:01:08.976Z,593.00
2023-01-26T14:02:08.780Z,594.00
2023-01-26T14:03:08.655Z,595.00
2023-01-26T14:21:06.132Z,594.00
2023-01-26T14:22:05.977Z,592.00
2023-01-26T14:23:05.876Z,592.00
2023-01-26T14:24:05.761Z,590.00
2023-01-26T14:25:05.626Z,593.00
2023-01-26T14:26:05.494Z,591.00
2023-01-26T14:27:05.300Z,589.00
2023-01-26T14:28:05.192Z,586.00
2023-01-26T14:29:05.022Z,586.00
2023-01-26T14:30:04.933Z,588.00
2023-01-26T14:31:07.472Z,587.00
2023-01-26T14:32:04.607Z,587.00
2023-01-26T14:33:04.453Z,586.00
2023-01-26T14:34:04.250Z,585.00
2023-01-26T14:35:04.074Z,583.00
2023-01-26T14:36:03.917Z,580.00
2023-01-26T14:37:03.754Z,582.00
2023-01-26T14:38:03.592Z,583.00
2023-01-26T14:39:03.389Z,581.00
2023-01-26T14:40:03.226Z,577.00
2023-01-26T14:41:03.027Z,579.00
2023-01-26T14:42:02.856Z,581.00
2023-01-26T14:43:02.740Z,580.00
2023-01-26T14:44:02.500Z,582.00
2023-01-26T14:45:02.343Z,582.00
2023-01-26T14:46:02.190Z,582.00
2023-01-26T14:47:01.995Z,578.00
2023-01-26T14:48:01.856Z,577.00
2023-01-26T14:49:01.660Z,578.00
2023-01-26T14:50:01.517Z,580.00
2023-01-26T14:51:01.304Z,583.00
2023-01-26T14:52:01.128Z,580.00
2023-01-26T14:53:01.000Z,578.00
2023-01-26T14:54:00.812Z,578.00
2023-01-26T14:55:00.670Z,578.00
2023-01-26T14:56:00.612Z,578.00
2023-01-26T14:57:00.339Z,579.00
2023-01-26T14:58:00.142Z,582.00
2023-01-26T14:58:59.974Z,581.00
2023-01-26T14:59:59.776Z,579.00
2023-01-26T15:00:59.711Z,579.00
2023-01-26T15:01:59.436Z,576.00
2023-01-26T15:02:59.291Z,578.00
2023-01-26T15:03:59.112Z,577.00
2023-01-26T15:04:58.955Z,579.00
2023-01-26T15:05:58.743Z,579.00
2023-01-26T15:06:58.615Z,579.00
2023-01-26T15:07:58.410Z,576.00
2023-01-26T15:08:58.240Z,572.00
2023-01-26T15:09:58.051Z,572.00
2023-01-26T15:10:57.887Z,571.00
2023-01-26T15:11:57.754Z,572.00
2023-01-26T15:12:57.552Z,572.00
2023-01-26T15:13:57.364Z,573.00
2023-01-26T15:14:57.173Z,573.00
2023-01-26T15:15:57.037Z,573.00
2023-01-26T15:16:56.844Z,573.00
2023-01-26T15:17:56.786Z,571.00
2023-01-26T15:18:56.561Z,571.00
2023-01-26T15:19:56.398Z,569.00
2023-01-26T15:20:56.224Z,563.00
2023-01-26T15:21:56.115Z,565.00
2023-01-26T15:22:55.980Z,568.00
2023-01-26T15:23:55.856Z,567.00
2023-01-26T15:24:55.703Z,566.00
2023-01-26T15:25:55.598Z,569.00
2023-01-26T15:26:55.450Z,568.00
2023-01-26T15:27:58.269Z,567.00
2023-01-26T15:28:55.124Z,568.00
2023-01-26T15:29:54.971Z,567.00
2023-01-26T15:30:54.797Z,567.00
2023-01-26T15:31:54.716Z,567.00
2023-01-26T15:32:54.441Z,566.00
2023-01-26T15:33:54.323Z,566.00
2023-01-26T15:34:54.112Z,564.00
2023-01-26T15:35:53.912Z,563.00
2023-01-26T15:36:53.782Z,562.00
2023-01-26T15:37:53.599Z,562.00
2023-01-26T15:38:53.428Z,562.00
2023-01-26T15:39:53.309Z,562.00
2023-01-26T15:40:53.096Z,559.00
2023-01-26T15:41:52.935Z,557.00
2023-01-26T15:42:52.762Z,557.00
2023-01-26T15:43:52.565Z,558.00
2023-01-26T15:44:52.398Z,556.00
2023-01-26T15:45:52.226Z,557.00
2023-01-26T15:46:52.087Z,557.00
2023-01-26T15:47:51.923Z,557.00
2023-01-26T15:48:51.738Z,557.00
2023-01-26T15:49:51.557Z,557.00
2023-01-26T15:50:51.461Z,557.00
2023-01-26T15:51:53.742Z,557.00
2023-01-26T15:52:51.071Z,557.00
2023-01-26T15:53:50.901Z,556.00
2023-01-26T15:54:50.741Z,554.00
2023-01-26T15:55:50.570Z,556.00
2023-01-26T15:56:50.371Z,555.00
2023-01-26T15:57:50.241Z,555.00
2023-01-26T15:58:50.035Z,557.00
2023-01-26T15:59:50.884Z,555.00
2023-01-26T16:00:49.710Z,556.00
2023-01-26T16:01:49.584Z,556.00
2023-01-26T16:02:49.398Z,556.00
2023-01-26T16:03:49.171Z,558.00
2023-01-26T16:04:48.997Z,560.00
2023-01-26T16:05:48.827Z,558.00
2023-01-26T16:06:48.665Z,556.00
2023-01-26T16:07:48.503Z,554.00
2023-01-26T16:08:48.321Z,554.00
2023-01-26T16:09:48.255Z,553.00
2023-01-26T16:10:47.999Z,553.00
2023-01-26T16:11:47.823Z,552.00
2023-01-26T16:12:47.709Z,550.00
2023-01-26T16:14:02.016Z,547.00
2023-01-26T16:14:48.459Z,548.00
2023-01-26T16:15:47.280Z,546.00
2023-01-26T16:16:47.065Z,545.00
2023-01-26T16:17:46.895Z,544.00
2023-01-26T16:18:46.739Z,544.00
2023-01-26T16:19:46.569Z,544.00
2023-01-26T16:20:46.373Z,543.00
2023-01-26T16:21:46.204Z,542.00
2023-01-26T16:22:46.033Z,539.00
2023-01-26T16:23:45.928Z,541.00
2023-01-26T16:24:45.707Z,540.00
2023-01-26T16:25:45.548Z,542.00
2023-01-26T16:26:45.410Z,540.00
2023-01-26T16:27:45.272Z,538.00
2023-01-26T16:28:45.227Z,537.00
2023-01-26T16:29:45.072Z,536.00
2023-01-26T16:30:44.993Z,537.00
2023-01-26T16:31:44.837Z,537.00
2023-01-26T16:32:44.701Z,536.00
2023-01-26T16:33:44.542Z,534.00
2023-01-26T16:34:44.451Z,534.00
2023-01-26T16:35:44.302Z,531.00
2023-01-26T16:36:44.206Z,531.00
2023-01-26T16:37:44.073Z,531.00
2023-01-26T16:38:43.971Z,530.00
2023-01-26T16:39:43.792Z,530.00
2023-01-26T16:40:43.664Z,529.00
2023-01-26T16:41:43.568Z,528.00
2023-01-26T16:42:43.431Z,530.00
2023-01-26T16:43:43.312Z,529.00
2023-01-26T16:55:41.824Z,525.00
2023-01-26T16:57:41.569Z,522.00
2023-01-26T16:58:41.443Z,521.00
2023-01-26T16:59:41.345Z,522.00
2023-01-26T17:00:41.149Z,521.00
2023-01-26T17:01:41.064Z,521.00
2023-01-26T17:02:40.892Z,521.00
2023-01-26T17:03:40.786Z,520.00
2023-01-26T17:04:40.633Z,519.00
2023-01-26T17:05:40.527Z,516.00
2023-01-26T17:06:40.408Z,516.00
2023-01-26T17:07:40.284Z,515.00
2023-01-26T17:08:40.149Z,517.00
2023-01-26T17:09:40.036Z,517.00
2023-01-26T17:10:51.926Z,518.00
2023-01-26T17:11:40.822Z,519.00
2023-01-26T17:12:39.592Z,518.00
2023-01-26T17:13:39.429Z,517.00
2023-01-26T17:14:39.339Z,516.00
2023-01-26T17:15:39.104Z,515.00
2023-01-26T17:16:38.981Z,514.00
2023-01-26T17:17:38.743Z,516.00
2023-01-26T17:18:38.561Z,516.00
2023-01-26T17:19:38.379Z,516.00
2023-01-26T17:20:38.222Z,514.00
2023-01-26T17:24:37.728Z,511.00
2023-01-26T17:25:37.608Z,511.00
2023-01-26T17:26:37.479Z,512.00
2023-01-26T17:27:37.344Z,513.00
2023-01-26T17:28:37.236Z,513.00
2023-01-26T17:29:37.115Z,513.00
2023-01-26T17:30:37.016Z,513.00
2023-01-26T17:31:36.945Z,513.00
2023-01-26T17:32:36.748Z,512.00
2023-01-26T17:33:36.670Z,513.00
2023-01-26T17:34:36.537Z,513.00
2023-01-26T17:35:36.403Z,511.00
2023-01-26T17:36:36.333Z,512.00
2023-01-26T17:37:36.175Z,513.00
2023-01-26T17:38:36.063Z,512.00
2023-01-26T17:39:35.933Z,514.00
2023-01-26T17:40:35.830Z,513.00
2023-01-26T17:41:35.692Z,513.00
2023-01-26T17:42:35.590Z,512.00
2023-01-26T17:43:35.513Z,510.00
2023-01-26T17:44:35.323Z,511.00
2023-01-26T17:45:35.279Z,512.00
2023-01-26T17:46:35.113Z,512.00
2023-01-26T17:47:34.991Z,512.00
2023-01-26T17:48:34.883Z,512.00
2023-01-26T17:49:34.769Z,514.00
2023-01-26T17:50:34.683Z,514.00
2023-01-26T17:51:34.575Z,515.00
2023-01-26T17:52:34.436Z,515.00
2023-01-26T17:53:34.319Z,511.00
2023-01-26T17:54:34.134Z,510.00
2023-01-26T17:55:34.062Z,511.00
2023-01-26T17:56:33.959Z,510.00
2023-01-26T17:57:33.835Z,510.00
2023-01-26T17:58:33.736Z,509.00
2023-01-26T17:59:33.568Z,507.00
2023-01-26T18:00:33.417Z,507.00
2023-01-26T18:01:33.340Z,509.00
2023-01-26T18:02:33.256Z,509.00
2023-01-26T18:03:33.107Z,507.00
2023-01-26T18:04:32.997Z,507.00
2023-01-26T18:05:32.901Z,509.00
2023-01-26T18:06:32.788Z,510.00
2023-01-26T18:07:32.694Z,505.00
2023-01-26T18:08:32.545Z,503.00
2023-01-26T18:09:32.400Z,503.00
2023-01-26T18:10:32.317Z,503.00
2023-01-26T18:11:32.207Z,505.00
2023-01-26T18:12:32.116Z,506.00
2023-01-26T18:13:31.992Z,507.00
2023-01-26T18:14:31.873Z,505.00
2023-01-26T18:15:31.765Z,508.00
2023-01-26T18:16:31.700Z,510.00
2023-01-26T18:17:31.530Z,510.00
2023-01-26T18:18:31.414Z,506.00
2023-01-26T18:19:31.327Z,508.00
2023-01-26T18:20:31.185Z,508.00
2023-01-26T18:21:31.096Z,507.00
2023-01-26T18:22:30.962Z,507.00
2023-01-26T18:23:30.841Z,507.00
2023-01-26T18:24:30.724Z,506.00
2023-01-26T18:25:30.615Z,505.00
2023-01-26T18:26:30.476Z,503.00
2023-01-26T18:27:30.390Z,506.00
2023-01-26T18:28:30.283Z,507.00
2023-01-26T18:29:30.146Z,506.00
2023-01-26T18:30:30.069Z,505.00
2023-01-26T18:31:29.991Z,507.00
2023-01-26T18:32:29.822Z,507.00
2023-01-26T18:33:29.699Z,508.00
2023-01-26T18:34:29.622Z,507.00
2023-01-26T18:35:29.452Z,506.00
2023-01-26T18:36:29.369Z,504.00
2023-01-26T18:37:31.516Z,507.00
2023-01-26T18:38:29.068Z,506.00
2023-01-26T18:39:28.936Z,508.00
2023-01-26T18:40:28.764Z,507.00
2023-01-26T18:41:28.600Z,504.00
2023-01-26T19:45:19.612Z,499.00
2023-01-26T19:46:19.467Z,498.00
2023-01-26T19:47:19.354Z,500.00
2023-01-26T19:48:19.254Z,499.00
2023-01-26T19:49:19.164Z,497.00
2023-01-26T19:50:19.041Z,498.00
2023-01-26T19:51:18.951Z,499.00
2023-01-26T19:52:18.831Z,499.00
2023-01-26T19:53:18.722Z,501.00
2023-01-26T19:54:18.584Z,503.00
2023-01-26T20:42:13.152Z,504.00
2023-01-26T20:43:13.011Z,502.00
2023-01-26T20:44:12.887Z,498.00
2023-01-26T20:45:12.991Z,498.00
2023-01-26T20:46:12.687Z,499.00
2023-01-26T20:47:12.552Z,500.00
2023-01-26T20:48:12.399Z,503.00
2023-01-26T21:05:10.422Z,505.00
2023-01-26T21:06:10.316Z,504.00
2023-01-26T21:07:10.221Z,504.00
2023-01-26T21:08:10.129Z,504.00